Danville, Kentucky
Current Conditions -  °F | °C
As of 2:15 PM on Monday 20 Oct 2014 (Local Time) from KDVK Reporting Station
Scattered Clouds Scattered Clouds  
Wind Chill: 15°   Ceiling: Unl
Heat Index: 15°   Visibility: 10mi
Dew Point:   Wind: 9mph
Humidity: 67%   Direction: 230°SW
Pressure: 29.99"   Gusts: NA
Location:  37.65°N, 84.77°W
Report Text: KDVK 201815Z AUTO 23008KT 10SM SCT100 15/09 A2999 RMK AO2
Loading
Personal Weather Stations






























Interactive Weather Map
Tropical Storm Tracking
New forecast layout! Learn more

10-Day Weather Forecast

Advertisements
Track Severe Weather on mobile